createdAt,value
2023-02-09T00:00:01.923Z,23.08
2023-02-09T00:02:39.841Z,24.55
2023-02-09T00:05:06.417Z,26.70
2023-02-09T00:07:32.854Z,23.08
2023-02-09T00:09:59.135Z,26.08
2023-02-09T00:12:44.293Z,28.70
2023-02-09T00:15:10.595Z,25.98
2023-02-09T00:17:37.238Z,24.98
2023-02-09T00:20:04.130Z,26.52
2023-02-09T00:22:30.413Z,26.38
2023-02-09T00:24:57.435Z,24.33
2023-02-09T00:27:23.823Z,24.20
2023-02-09T00:29:50.113Z,22.58
2023-02-09T00:32:16.532Z,25.08
2023-02-09T00:34:42.808Z,22.83
2023-02-09T00:37:09.121Z,25.17
2023-02-09T00:39:35.407Z,24.13
2023-02-09T00:42:07.873Z,24.73
2023-02-09T00:44:35.629Z,25.48
2023-02-09T00:47:02.311Z,27.58
2023-02-09T00:49:28.762Z,25.92
2023-02-09T00:51:55.371Z,21.50
2023-02-09T00:54:21.893Z,24.90
2023-02-09T00:56:48.209Z,28.27
2023-02-09T00:59:14.997Z,30.02
2023-02-09T01:01:41.711Z,27.33
2023-02-09T01:04:08.052Z,25.45
2023-02-09T01:06:34.553Z,30.08
2023-02-09T01:09:01.855Z,24.75
2023-02-09T01:11:29.702Z,24.38
2023-02-09T01:13:57.133Z,24.90
2023-02-09T01:16:23.916Z,26.23
2023-02-09T01:18:50.272Z,24.42
2023-02-09T01:21:17.928Z,26.08
2023-02-09T01:23:44.357Z,24.88
2023-02-09T01:26:11.150Z,26.23
2023-02-09T01:28:37.551Z,27.85
2023-02-09T01:31:04.636Z,26.73
2023-02-09T01:33:31.499Z,26.27
2023-02-09T01:35:58.355Z,25.70
2023-02-09T01:38:25.291Z,26.83
2023-02-09T01:40:51.632Z,27.52
2023-02-09T01:43:18.019Z,28.50
2023-02-09T01:45:49.959Z,29.58
2023-02-09T01:48:20.390Z,29.90
2023-02-09T01:50:48.846Z,27.67
2023-02-09T01:53:15.668Z,29.42
2023-02-09T01:55:50.202Z,30.02
2023-02-09T01:58:18.621Z,28.42
2023-02-09T02:00:46.052Z,30.90
2023-02-09T02:03:14.744Z,30.27
2023-02-09T02:05:43.611Z,28.60
2023-02-09T02:08:19.063Z,28.20
2023-02-09T02:10:45.816Z,28.48
2023-02-09T02:13:12.594Z,28.98
2023-02-09T02:15:57.669Z,31.40
2023-02-09T02:18:37.886Z,32.00
2023-02-09T02:21:20.607Z,31.20
2023-02-09T02:24:05.818Z,27.55
2023-02-09T02:26:38.351Z,33.03
2023-02-09T02:29:26.250Z,30.33
2023-02-09T02:32:01.556Z,33.72
2023-02-09T02:34:36.284Z,31.85
2023-02-09T02:37:11.365Z,31.52
2023-02-09T02:39:45.528Z,29.65
2023-02-09T02:42:48.079Z,31.75
2023-02-09T02:45:33.361Z,32.00
2023-02-09T02:47:59.624Z,26.13
2023-02-09T02:50:27.084Z,28.95
2023-02-09T02:52:56.461Z,26.42
2023-02-09T02:55:25.490Z,29.50
2023-02-09T02:57:54.580Z,29.42
2023-02-09T03:00:30.340Z,33.08
2023-02-09T03:02:58.808Z,31.50
2023-02-09T03:05:26.516Z,34.25
2023-02-09T03:07:52.820Z,32.47
2023-02-09T03:10:32.443Z,30.17
2023-02-09T03:13:01.755Z,34.53
2023-02-09T03:15:28.091Z,35.20
2023-02-09T03:18:13.229Z,31.38
2023-02-09T03:20:52.311Z,29.90
2023-02-09T03:23:30.781Z,29.48
2023-02-09T03:25:57.970Z,33.85
2023-02-09T03:28:30.238Z,30.73
2023-02-09T03:30:57.409Z,33.88
2023-02-09T03:33:28.250Z,32.53
2023-02-09T03:35:59.026Z,32.25
2023-02-09T03:38:25.832Z,32.33
2023-02-09T03:40:52.182Z,34.28
2023-02-09T03:43:18.517Z,33.70
2023-02-09T03:45:44.867Z,35.75
2023-02-09T03:48:11.198Z,34.25
2023-02-09T03:50:37.819Z,31.98
2023-02-09T03:53:07.323Z,32.20
2023-02-09T03:55:33.848Z,34.63
2023-02-09T03:58:00.577Z,33.53
2023-02-09T04:00:26.976Z,39.33
2023-02-09T04:02:53.621Z,32.92
2023-02-09T04:05:19.987Z,36.08
2023-02-09T04:07:46.463Z,35.05
2023-02-09T04:10:12.793Z,34.13
2023-02-09T04:12:39.117Z,29.95
2023-02-09T04:15:05.591Z,35.03
2023-02-09T04:17:31.902Z,33.05
2023-02-09T04:19:58.173Z,36.22
2023-02-09T04:22:24.440Z,37.58
2023-02-09T04:24:50.735Z,31.95
2023-02-09T04:27:17.014Z,34.53
2023-02-09T04:29:43.380Z,37.15
2023-02-09T04:32:09.734Z,32.88
2023-02-09T04:34:36.070Z,33.70
2023-02-09T04:37:02.436Z,36.78
2023-02-09T04:39:28.823Z,37.83
2023-02-09T04:41:55.133Z,36.13
2023-02-09T04:44:21.460Z,32.45
2023-02-09T04:46:47.811Z,33.95
2023-02-09T04:49:14.163Z,35.75
2023-02-09T04:51:40.459Z,35.88
2023-02-09T04:54:06.795Z,33.47
2023-02-09T04:56:33.093Z,36.63
2023-02-09T04:59:17.943Z,36.17
2023-02-09T05:01:44.281Z,33.20
2023-02-09T05:04:10.605Z,33.45
2023-02-09T05:06:36.918Z,34.25
2023-02-09T05:09:03.405Z,33.40
2023-02-09T05:11:29.709Z,32.00
2023-02-09T05:13:56.251Z,33.80
2023-02-09T05:16:22.624Z,31.55
2023-02-09T05:18:50.491Z,30.90
2023-02-09T05:21:16.792Z,35.92
2023-02-09T05:23:43.075Z,32.28
2023-02-09T05:26:09.537Z,34.45
2023-02-09T05:28:35.844Z,31.58
2023-02-09T05:31:02.316Z,34.50
2023-02-09T05:33:28.759Z,34.13
2023-02-09T05:35:58.119Z,35.75
2023-02-09T05:38:24.489Z,35.67
2023-02-09T05:40:51.185Z,35.13
2023-02-09T05:43:17.798Z,35.08
2023-02-09T05:45:44.991Z,32.90
2023-02-09T05:48:11.340Z,35.13
2023-02-09T05:50:37.645Z,39.35
2023-02-09T05:53:06.784Z,38.70
2023-02-09T05:55:33.088Z,37.05
2023-02-09T05:57:59.672Z,37.88
2023-02-09T06:00:27.011Z,36.47
2023-02-09T06:02:53.297Z,36.60
2023-02-09T06:05:21.843Z,37.78
2023-02-09T06:07:48.339Z,39.42
2023-02-09T06:10:14.638Z,34.67
2023-02-09T06:12:41.460Z,38.72
2023-02-09T06:15:08.253Z,35.53
2023-02-09T06:17:34.584Z,38.33
2023-02-09T06:20:00.944Z,37.17
2023-02-09T06:22:29.071Z,39.30
2023-02-09T06:24:55.374Z,39.85
2023-02-09T06:27:21.640Z,40.63
2023-02-09T06:29:47.983Z,33.42
2023-02-09T06:32:14.295Z,35.22
2023-02-09T06:34:40.647Z,33.88
2023-02-09T06:37:06.951Z,37.85
2023-02-09T06:39:33.258Z,34.03
2023-02-09T06:41:59.658Z,36.97
2023-02-09T06:44:26.096Z,36.88
2023-02-09T06:46:52.381Z,36.80
2023-02-09T06:49:18.899Z,41.38
2023-02-09T06:51:45.426Z,36.13
2023-02-09T06:54:11.828Z,39.95
2023-02-09T06:56:38.130Z,35.42
2023-02-09T06:59:04.388Z,35.70
2023-02-09T07:01:30.703Z,35.35
2023-02-09T07:03:57.064Z,38.90
2023-02-09T07:06:23.669Z,41.97
2023-02-09T07:08:50.272Z,37.00
2023-02-09T07:11:17.531Z,40.95
2023-02-09T07:13:44.030Z,35.78
2023-02-09T07:16:10.749Z,38.83
2023-02-09T07:18:37.307Z,41.10
2023-02-09T07:21:05.492Z,35.88
2023-02-09T07:23:31.874Z,38.15
2023-02-09T07:26:01.892Z,34.22
2023-02-09T07:28:28.305Z,40.90
2023-02-09T07:30:54.832Z,36.72
2023-02-09T07:33:21.599Z,39.65
2023-02-09T07:35:48.430Z,41.20
2023-02-09T07:38:14.738Z,33.40
2023-02-09T07:40:46.393Z,38.00
2023-02-09T07:43:13.477Z,37.17
2023-02-09T07:45:39.966Z,37.72
2023-02-09T07:48:06.310Z,35.20
2023-02-09T07:50:32.667Z,34.30
2023-02-09T07:52:59.000Z,34.63
2023-02-09T07:55:25.299Z,28.58
2023-02-09T07:57:51.587Z,31.30
2023-02-09T08:00:18.177Z,30.05
2023-02-09T08:02:44.945Z,29.77
2023-02-09T08:05:18.017Z,33.30
2023-02-09T08:07:45.253Z,28.15
2023-02-09T08:10:11.780Z,28.52
2023-02-09T08:12:57.155Z,32.95
2023-02-09T08:15:23.563Z,30.33
2023-02-09T08:17:51.940Z,29.23
2023-02-09T08:20:20.510Z,31.63
2023-02-09T08:22:48.960Z,29.25
2023-02-09T08:25:16.514Z,28.10
2023-02-09T08:27:43.945Z,26.95
2023-02-09T08:30:11.029Z,27.05
2023-02-09T08:32:37.300Z,30.88
2023-02-09T08:35:03.814Z,32.15
2023-02-09T08:37:30.606Z,32.55
2023-02-09T08:39:57.092Z,29.17
2023-02-09T08:42:23.464Z,29.65
2023-02-09T08:44:49.868Z,29.23
2023-02-09T08:47:16.319Z,32.40
2023-02-09T08:49:42.685Z,27.90
2023-02-09T08:52:09.128Z,28.13
2023-02-09T08:54:35.725Z,30.83
2023-02-09T08:57:03.337Z,33.15
2023-02-09T08:59:29.704Z,30.55
2023-02-09T09:01:55.985Z,30.63
2023-02-09T09:04:22.336Z,33.53
2023-02-09T09:06:48.885Z,33.15
2023-02-09T09:09:15.190Z,33.22
2023-02-09T09:11:41.508Z,34.88
2023-02-09T09:14:07.796Z,31.05
2023-02-09T09:16:34.233Z,31.77
2023-02-09T09:19:00.630Z,34.38
2023-02-09T09:21:26.945Z,30.40
2023-02-09T09:23:53.261Z,30.00
2023-02-09T09:26:19.640Z,32.63
2023-02-09T09:28:48.821Z,37.90
2023-02-09T09:31:16.337Z,30.90
2023-02-09T09:33:43.116Z,25.92
2023-02-09T09:36:10.103Z,30.90
2023-02-09T09:38:36.956Z,28.05
2023-02-09T09:41:16.637Z,35.72
2023-02-09T09:43:43.048Z,29.75
2023-02-09T09:46:11.935Z,32.90
2023-02-09T09:48:42.075Z,29.58
2023-02-09T09:51:20.391Z,33.38
2023-02-09T09:53:49.153Z,29.13
2023-02-09T09:56:15.853Z,30.27
2023-02-09T09:58:43.061Z,28.73
2023-02-09T10:01:17.346Z,28.55
2023-02-09T10:03:43.741Z,29.30
2023-02-09T10:06:18.101Z,28.77
2023-02-09T10:08:56.174Z,27.27
2023-02-09T10:11:29.061Z,26.80
2023-02-09T10:13:56.592Z,28.35
2023-02-09T10:16:25.299Z,28.05
2023-02-09T10:18:52.441Z,28.98
2023-02-09T10:21:18.845Z,31.92
2023-02-09T10:23:46.322Z,26.70
2023-02-09T10:26:12.623Z,30.70
2023-02-09T10:28:40.510Z,26.27
2023-02-09T10:31:15.977Z,29.50
2023-02-09T10:33:43.891Z,29.08
2023-02-09T10:36:23.277Z,27.77
2023-02-09T10:38:49.646Z,28.58
2023-02-09T10:41:16.060Z,27.83
2023-02-09T10:43:42.487Z,27.77
2023-02-09T10:46:26.947Z,26.67
2023-02-09T10:48:53.366Z,29.80
2023-02-09T10:51:29.620Z,28.42
2023-02-09T10:53:57.735Z,27.98
2023-02-09T10:56:29.012Z,29.02
2023-02-09T10:59:14.667Z,27.63
2023-02-09T11:01:42.232Z,26.27
2023-02-09T11:04:20.105Z,27.67
2023-02-09T11:06:50.212Z,30.52
2023-02-09T11:09:18.333Z,27.45
2023-02-09T11:11:45.101Z,25.70
2023-02-09T11:14:12.565Z,24.40
2023-02-09T11:16:57.682Z,24.90
2023-02-09T11:19:39.381Z,23.98
2023-02-09T11:22:13.578Z,24.58
2023-02-09T11:24:44.887Z,24.48
2023-02-09T11:27:17.114Z,27.02
2023-02-09T11:29:50.702Z,25.52
2023-02-09T11:32:19.338Z,24.63
2023-02-09T11:34:51.731Z,24.13
2023-02-09T11:37:17.982Z,24.27
2023-02-09T11:39:49.731Z,24.95
2023-02-09T11:42:36.981Z,23.98
2023-02-09T11:45:21.974Z,27.10
2023-02-09T11:47:57.999Z,26.17
2023-02-09T11:50:28.079Z,26.55
2023-02-09T11:53:03.536Z,26.40
2023-02-09T11:55:33.420Z,24.58
2023-02-09T11:58:15.296Z,27.88
2023-02-09T12:00:55.918Z,26.38
2023-02-09T12:03:26.689Z,24.25
2023-02-09T12:05:53.699Z,28.83
2023-02-09T12:08:25.845Z,27.45
2023-02-09T12:11:04.002Z,28.00
2023-02-09T12:13:39.517Z,26.83
2023-02-09T12:16:13.132Z,27.52
2023-02-09T12:18:40.828Z,26.08
2023-02-09T12:21:07.555Z,28.95
2023-02-09T12:23:33.866Z,29.40
2023-02-09T12:26:03.159Z,27.98
2023-02-09T12:28:29.505Z,29.08
2023-02-09T12:30:58.685Z,26.80
2023-02-09T12:33:25.114Z,25.88
2023-02-09T12:36:01.048Z,24.17
2023-02-09T12:38:51.612Z,26.25
2023-02-09T12:41:22.928Z,27.00
2023-02-09T12:43:50.305Z,27.42
2023-02-09T12:46:16.713Z,28.38
2023-02-09T12:49:01.643Z,28.83
2023-02-09T12:51:47.187Z,27.38
2023-02-09T12:54:32.792Z,29.98
2023-02-09T12:57:17.839Z,29.27
2023-02-09T12:59:50.348Z,29.23
2023-02-09T13:02:30.049Z,29.45
2023-02-09T13:04:56.524Z,31.75
2023-02-09T13:07:26.990Z,29.92
2023-02-09T13:09:54.449Z,29.30
2023-02-09T13:12:23.342Z,28.95
2023-02-09T13:14:50.766Z,28.48
2023-02-09T13:17:30.987Z,30.95
2023-02-09T13:20:16.258Z,32.55
2023-02-09T13:23:04.806Z,34.35
2023-02-09T13:25:34.212Z,30.15
2023-02-09T13:28:07.803Z,31.30
2023-02-09T13:30:34.431Z,28.70
2023-02-09T13:33:19.399Z,30.77
2023-02-09T13:36:09.162Z,28.02
2023-02-09T13:38:42.541Z,35.47
2023-02-09T13:41:23.156Z,31.75
2023-02-09T13:43:49.546Z,32.38
2023-02-09T13:46:23.702Z,30.75
2023-02-09T13:48:50.122Z,30.75
2023-02-09T13:51:18.794Z,30.13
2023-02-09T13:54:01.387Z,36.08
2023-02-09T13:56:28.274Z,34.72
2023-02-09T13:58:55.215Z,31.95
2023-02-09T14:01:25.900Z,31.13
2023-02-09T14:03:58.707Z,34.45
2023-02-09T14:06:47.062Z,29.65
2023-02-09T14:09:33.666Z,29.05
2023-02-09T14:12:02.610Z,33.45
2023-02-09T14:15:07.713Z,30.88
2023-02-09T14:20:01.708Z,37.22
2023-02-09T14:22:35.381Z,35.35
2023-02-09T14:25:06.011Z,34.28
2023-02-09T14:27:33.493Z,33.15
2023-02-09T14:30:01.164Z,39.45
2023-02-09T14:32:37.999Z,36.70
2023-02-09T14:35:23.178Z,35.17
2023-02-09T14:37:50.445Z,39.08
2023-02-09T14:40:21.954Z,39.22
2023-02-09T14:43:19.739Z,34.50
2023-02-09T14:45:48.060Z,33.78
2023-02-09T14:48:21.775Z,36.70
2023-02-09T14:50:58.137Z,34.28
2023-02-09T14:53:26.110Z,34.33
2023-02-09T14:55:53.752Z,43.13
2023-02-09T14:58:20.235Z,41.90
2023-02-09T15:00:46.650Z,39.63
2023-02-09T15:03:12.967Z,35.60
2023-02-09T15:05:39.285Z,38.00
2023-02-09T15:08:08.830Z,38.78
2023-02-09T15:10:36.740Z,33.50
2023-02-09T15:13:04.040Z,36.00
2023-02-09T15:15:31.329Z,37.55
2023-02-09T15:17:59.121Z,34.08
2023-02-09T15:20:25.921Z,34.30
2023-02-09T15:22:53.195Z,38.72
2023-02-09T15:25:19.981Z,39.38
2023-02-09T15:27:53.729Z,40.55
2023-02-09T15:32:46.882Z,37.80
2023-02-09T15:35:15.896Z,38.58
2023-02-09T15:37:43.014Z,34.72
2023-02-09T15:40:12.328Z,37.10
2023-02-09T15:42:57.580Z,35.80
2023-02-09T15:45:44.593Z,37.63
2023-02-09T15:48:11.493Z,35.97
2023-02-09T15:50:39.954Z,37.45
2023-02-09T15:53:11.356Z,36.65
2023-02-09T15:55:38.178Z,38.28
2023-02-09T15:58:10.886Z,37.65
2023-02-09T16:00:37.247Z,36.85
2023-02-09T16:03:09.169Z,38.40
2023-02-09T16:05:35.480Z,45.78
2023-02-09T16:08:01.987Z,40.78
2023-02-09T16:10:29.341Z,37.88
2023-02-09T16:12:56.562Z,36.70
2023-02-09T16:15:24.272Z,37.58
2023-02-09T16:17:50.797Z,37.63
2023-02-09T16:20:17.763Z,42.38
2023-02-09T16:22:45.562Z,40.58
2023-02-09T16:25:18.881Z,42.30
2023-02-09T16:27:45.186Z,37.70
2023-02-09T16:30:15.887Z,37.92
2023-02-09T16:32:42.315Z,35.72
2023-02-09T16:35:16.721Z,43.17
2023-02-09T16:37:44.550Z,39.72
2023-02-09T16:40:17.007Z,42.53
2023-02-09T16:42:43.643Z,43.63
2023-02-09T16:45:16.588Z,41.17
2023-02-09T16:47:45.560Z,41.25
2023-02-09T16:50:35.559Z,38.60
2023-02-09T16:53:03.986Z,53.72
2023-02-09T16:55:32.046Z,56.50
2023-02-09T16:57:59.270Z,49.83
2023-02-09T17:00:27.591Z,49.75
2023-02-09T17:02:56.445Z,56.42
2023-02-09T17:05:25.817Z,47.78
2023-02-09T17:07:55.357Z,49.00
2023-02-09T17:10:24.222Z,44.85
2023-02-09T17:12:52.614Z,55.90
2023-02-09T17:15:29.519Z,57.67
2023-02-09T17:18:00.296Z,55.47
2023-02-09T17:20:30.381Z,48.63
2023-02-09T17:22:56.763Z,51.05
2023-02-09T17:25:24.216Z,45.83
2023-02-09T17:27:50.526Z,49.22
2023-02-09T17:30:17.393Z,45.55
2023-02-09T17:32:45.684Z,44.58
2023-02-09T17:35:14.810Z,42.72
2023-02-09T17:37:41.586Z,47.33
2023-02-09T17:40:08.973Z,43.75
2023-02-09T17:42:36.365Z,49.65
2023-02-09T17:45:03.339Z,47.83
2023-02-09T17:47:29.698Z,43.50
2023-02-09T17:49:55.957Z,42.40
2023-02-09T17:52:22.318Z,48.20
2023-02-09T17:54:49.340Z,48.55
2023-02-09T17:57:16.830Z,48.38
2023-02-09T17:59:43.133Z,47.65
2023-02-09T18:02:16.676Z,47.60
2023-02-09T18:04:43.099Z,52.10
2023-02-09T18:07:09.968Z,55.15
2023-02-09T18:09:36.515Z,59.45
2023-02-09T18:12:04.480Z,61.35
2023-02-09T18:14:31.973Z,60.40
2023-02-09T18:16:58.300Z,59.25
2023-02-09T18:19:24.785Z,57.53
2023-02-09T18:21:52.411Z,62.30
2023-02-09T18:24:19.943Z,56.53
2023-02-09T18:26:47.729Z,54.13
2023-02-09T18:29:14.443Z,51.50
2023-02-09T18:31:40.923Z,54.75
2023-02-09T18:34:07.807Z,52.78
2023-02-09T18:36:34.252Z,54.25
2023-02-09T18:39:00.657Z,48.45
2023-02-09T18:41:27.259Z,46.25
2023-02-09T18:43:54.553Z,46.95
2023-02-09T18:46:21.018Z,41.78
2023-02-09T18:48:47.356Z,46.78
2023-02-09T18:51:13.954Z,44.78
2023-02-09T18:53:40.590Z,50.45
2023-02-09T18:56:06.886Z,51.25
2023-02-09T18:58:33.422Z,45.42
2023-02-09T19:00:59.990Z,46.03
2023-02-09T19:03:26.646Z,48.45
2023-02-09T19:05:52.957Z,44.85
2023-02-09T19:08:19.248Z,49.20
2023-02-09T19:10:45.559Z,51.65
2023-02-09T19:13:11.921Z,47.90
2023-02-09T19:15:38.957Z,49.35
2023-02-09T19:18:05.454Z,51.53
2023-02-09T19:20:32.263Z,56.88
2023-02-09T19:22:58.541Z,55.42
2023-02-09T19:25:25.864Z,57.47
2023-02-09T19:27:52.843Z,53.58
2023-02-09T19:30:24.595Z,58.28
2023-02-09T19:32:52.340Z,49.13
2023-02-09T19:35:21.900Z,52.47
2023-02-09T19:37:54.884Z,53.78
2023-02-09T19:40:27.749Z,57.33
2023-02-09T19:42:55.082Z,42.22
2023-02-09T19:45:21.467Z,56.70
2023-02-09T19:47:47.782Z,59.75
2023-02-09T19:50:15.919Z,57.10
2023-02-09T19:52:45.313Z,57.03
2023-02-09T19:55:12.715Z,67.68
2023-02-09T19:57:39.066Z,73.15
2023-02-09T20:00:06.203Z,69.32
2023-02-09T20:02:34.869Z,61.05
2023-02-09T20:05:01.206Z,56.83
2023-02-09T20:07:27.558Z,53.03
2023-02-09T20:09:53.822Z,56.05
2023-02-09T20:12:22.149Z,52.33
2023-02-09T20:14:48.832Z,62.40
2023-02-09T20:17:15.104Z,59.70
2023-02-09T20:19:41.522Z,57.70
2023-02-09T20:22:07.825Z,57.95
2023-02-09T20:24:34.131Z,61.75
2023-02-09T20:27:00.496Z,58.53
2023-02-09T20:29:26.801Z,71.28
2023-02-09T20:31:53.267Z,61.85
2023-02-09T20:34:19.615Z,56.30
2023-02-09T20:36:48.042Z,51.97
2023-02-09T20:39:16.008Z,52.00
2023-02-09T20:42:05.895Z,54.92
2023-02-09T20:44:51.100Z,58.78
2023-02-09T20:47:17.490Z,58.47
2023-02-09T20:49:43.809Z,62.10
2023-02-09T20:52:10.169Z,57.97
2023-02-09T20:54:36.601Z,55.53
2023-02-09T20:57:03.657Z,59.17
2023-02-09T20:59:31.039Z,55.42
2023-02-09T21:01:57.718Z,57.50
2023-02-09T21:04:26.454Z,56.63
2023-02-09T21:06:53.056Z,59.33
2023-02-09T21:09:25.888Z,62.58
2023-02-09T21:11:53.311Z,66.00
2023-02-09T21:14:27.712Z,60.85
2023-02-09T21:16:59.188Z,61.45
2023-02-09T21:19:25.526Z,60.20
2023-02-09T21:21:52.005Z,61.85
2023-02-09T21:24:18.497Z,68.25
2023-02-09T21:26:44.764Z,60.97
2023-02-09T21:29:11.155Z,59.22
2023-02-09T21:31:37.503Z,58.53
2023-02-09T21:34:03.913Z,55.28
2023-02-09T21:36:30.188Z,63.25
2023-02-09T21:38:56.493Z,63.08
2023-02-09T21:41:42.402Z,60.85
2023-02-09T21:44:09.983Z,57.50
2023-02-09T21:46:36.338Z,58.85
2023-02-09T21:49:02.846Z,55.20
2023-02-09T21:51:29.112Z,62.10
2023-02-09T21:53:55.429Z,57.38
2023-02-09T21:56:21.961Z,59.72
2023-02-09T21:58:48.316Z,54.92
2023-02-09T22:01:14.668Z,56.33
2023-02-09T22:03:42.533Z,56.20
2023-02-09T22:06:09.228Z,60.33
2023-02-09T22:08:35.565Z,57.63
2023-02-09T22:11:02.965Z,64.32
2023-02-09T22:13:30.250Z,58.85
2023-02-09T22:15:56.593Z,55.47
2023-02-09T22:18:22.916Z,62.15
2023-02-09T22:20:50.690Z,61.38
2023-02-09T22:23:17.462Z,57.60
2023-02-09T22:25:43.710Z,58.42
2023-02-09T22:28:10.949Z,59.47
2023-02-09T22:30:37.288Z,57.38
2023-02-09T22:33:03.744Z,54.03
2023-02-09T22:35:30.107Z,56.65
2023-02-09T22:37:56.389Z,59.97
2023-02-09T22:40:23.726Z,59.78
2023-02-09T22:42:50.004Z,61.85
2023-02-09T22:45:16.297Z,56.67
2023-02-09T22:47:42.624Z,57.55
2023-02-09T22:50:09.108Z,53.53
2023-02-09T22:52:35.419Z,56.25
2023-02-09T22:55:01.725Z,56.30
2023-02-09T22:57:28.017Z,60.03
2023-02-09T22:59:54.296Z,53.47
2023-02-09T23:02:20.571Z,57.05
2023-02-09T23:04:46.860Z,55.15
2023-02-09T23:07:13.266Z,53.60
2023-02-09T23:09:39.567Z,58.67
2023-02-09T23:12:05.882Z,56.83
2023-02-09T23:14:32.286Z,59.05
2023-02-09T23:16:59.506Z,57.40
2023-02-09T23:19:25.797Z,59.58
2023-02-09T23:21:52.245Z,60.83
2023-02-09T23:24:21.515Z,64.60
2023-02-09T23:26:48.110Z,58.58
2023-02-09T23:29:15.393Z,56.42
2023-02-09T23:31:42.301Z,57.65
2023-02-09T23:34:12.032Z,57.83
2023-02-09T23:36:38.267Z,54.45
2023-02-09T23:39:05.806Z,56.47
2023-02-09T23:41:32.558Z,55.17
2023-02-09T23:43:59.409Z,58.08
2023-02-09T23:46:28.454Z,54.50
2023-02-09T23:48:55.848Z,56.67
2023-02-09T23:51:26.301Z,59.13
2023-02-09T23:53:53.242Z,63.33
2023-02-09T23:56:20.051Z,63.42
2023-02-09T23:58:47.088Z,63.10
